createdAt,value
2023-02-02T00:02:19.774Z,100875.69
2023-02-02T00:04:50.020Z,100880.13
2023-02-02T00:07:18.119Z,100882.75
2023-02-02T00:09:47.393Z,100880.13
2023-02-02T00:12:15.451Z,100888.06
2023-02-02T00:14:43.429Z,100886.31
2023-02-02T00:17:14.297Z,100874.81
2023-02-02T00:19:42.467Z,100881.88
2023-02-02T00:22:10.678Z,100882.78
2023-02-02T00:24:38.533Z,100887.16
2023-02-02T00:27:07.982Z,100900.38
2023-02-02T00:29:39.749Z,100903.06
2023-02-02T00:32:07.962Z,100890.69
2023-02-02T00:34:36.063Z,100896.00
2023-02-02T00:37:06.684Z,100895.97
2023-02-02T00:39:35.196Z,100899.50
2023-02-02T00:42:03.374Z,100895.09
2023-02-02T00:44:50.187Z,100886.31
2023-02-02T00:47:18.519Z,100890.72
2023-02-02T00:49:46.580Z,100885.41
2023-02-02T00:52:14.857Z,100888.97
2023-02-02T00:54:42.944Z,100890.75
2023-02-02T00:57:14.098Z,100890.72
2023-02-02T00:59:43.849Z,100886.31
2023-02-02T01:02:12.930Z,100889.81
2023-02-02T01:04:41.391Z,100893.34
2023-02-02T01:07:09.778Z,100890.75
2023-02-02T01:09:38.000Z,100905.75
2023-02-02T01:12:06.787Z,100897.78
2023-02-02T01:14:35.099Z,100896.00
2023-02-02T01:17:05.300Z,100904.84
2023-02-02T01:19:33.711Z,100912.78
2023-02-02T01:22:03.461Z,100903.03
2023-02-02T01:24:32.053Z,100888.84
2023-02-02T01:27:00.081Z,100904.75
2023-02-02T01:29:28.296Z,100897.66
2023-02-02T01:31:56.268Z,100895.00
2023-02-02T01:34:28.137Z,100905.56
2023-02-02T01:36:56.097Z,100897.59
2023-02-02T01:39:24.739Z,100902.88
2023-02-02T01:41:53.035Z,100899.34
2023-02-02T01:45:05.017Z,100900.25
2023-02-02T01:47:38.852Z,100905.47
2023-02-02T01:50:10.980Z,100901.94
2023-02-02T01:52:43.973Z,100911.63
2023-02-02T01:55:15.467Z,100916.94
2023-02-02T01:57:46.686Z,100909.91
2023-02-02T02:00:17.441Z,100909.88
2023-02-02T02:02:50.048Z,100902.78
2023-02-02T02:05:28.007Z,100899.25
2023-02-02T02:08:03.731Z,100908.97
2023-02-02T02:10:31.803Z,100905.47
2023-02-02T02:13:00.115Z,100913.41
2023-02-02T02:15:50.522Z,100912.53
2023-02-02T02:18:28.625Z,100916.97
2023-02-02T02:21:50.703Z,100911.69
2023-02-02T02:25:17.094Z,100913.41
2023-02-02T02:28:27.941Z,100915.22
2023-02-02T02:31:07.904Z,100920.50
2023-02-02T02:33:47.462Z,100922.28
2023-02-02T02:36:21.268Z,100908.16
2023-02-02T02:38:57.837Z,100901.09
2023-02-02T02:41:30.954Z,100911.69
2023-02-02T02:44:03.384Z,100914.31
2023-02-02T02:46:33.248Z,100909.94
2023-02-02T02:49:03.186Z,100908.22
2023-02-02T02:51:45.036Z,100901.19
2023-02-02T02:54:22.302Z,100910.03
2023-02-02T02:57:11.157Z,100911.72
2023-02-02T02:59:48.780Z,100919.69
2023-02-02T03:02:30.108Z,100912.63
2023-02-02T03:05:13.393Z,100916.16
2023-02-02T03:07:48.526Z,100907.34
2023-02-02T03:10:20.359Z,100913.53
2023-02-02T03:12:50.180Z,100917.06
2023-02-02T03:15:19.183Z,100903.84
2023-02-02T03:17:50.141Z,100923.22
2023-02-02T03:20:20.099Z,100925.91
2023-02-02T03:22:50.960Z,100924.16
2023-02-02T03:25:19.323Z,100908.31
2023-02-02T03:27:47.355Z,100920.66
2023-02-02T03:30:15.737Z,100928.59
2023-02-02T03:32:47.782Z,100922.44
2023-02-02T03:35:20.774Z,100911.81
2023-02-02T03:37:49.016Z,100910.91
2023-02-02T03:40:19.464Z,100914.47
2023-02-02T03:42:47.475Z,100915.34
2023-02-02T03:48:29.490Z,100923.34
2023-02-02T03:50:57.763Z,100933.06
2023-02-02T03:53:26.031Z,100928.69
2023-02-02T03:55:54.930Z,100933.97
2023-02-02T03:58:23.063Z,100927.81
2023-02-02T04:00:55.496Z,100933.09
2023-02-02T04:03:26.323Z,100933.94
2023-02-02T04:05:55.573Z,100932.19
2023-02-02T04:08:23.634Z,100931.31
2023-02-02T04:10:54.145Z,100935.69
2023-02-02T04:13:27.012Z,100939.22
2023-02-02T04:15:58.980Z,100931.28
2023-02-02T04:18:30.082Z,100938.38
2023-02-02T04:21:00.253Z,100935.72
2023-02-02T04:23:32.232Z,100936.59
2023-02-02T04:26:00.994Z,100943.63
2023-02-02T04:28:29.908Z,100927.72
2023-02-02T04:30:58.222Z,100939.22
2023-02-02T04:33:28.661Z,100940.09
2023-02-02T04:35:56.652Z,100942.78
2023-02-02T04:38:26.171Z,100940.09
2023-02-02T04:40:54.278Z,100935.72
2023-02-02T04:43:22.271Z,100929.56
2023-02-02T04:45:56.406Z,100937.47
2023-02-02T04:48:26.839Z,100942.75
2023-02-02T04:51:00.332Z,100942.75
2023-02-02T04:53:30.438Z,100943.59
2023-02-02T04:55:59.242Z,100937.41
2023-02-02T04:58:29.909Z,100949.78
2023-02-02T05:00:57.781Z,100956.84
2023-02-02T05:03:26.010Z,100955.94
2023-02-02T05:06:02.394Z,100959.47
2023-02-02T05:08:32.101Z,100959.47
2023-02-02T05:11:06.707Z,100952.47
2023-02-02T05:13:34.964Z,100958.56
2023-02-02T05:16:03.043Z,100963.00
2023-02-02T05:18:33.543Z,100965.66
2023-02-02T05:21:01.843Z,100970.09
2023-02-02T05:23:31.901Z,100968.31
2023-02-02T05:26:02.005Z,100969.19
2023-02-02T05:28:30.574Z,100977.16
2023-02-02T05:30:59.075Z,100986.00
2023-02-02T05:33:27.366Z,100989.53
2023-02-02T05:35:57.626Z,100988.66
2023-02-02T05:38:25.746Z,100984.25
2023-02-02T05:40:55.032Z,100994.88
2023-02-02T05:43:26.045Z,100991.31
2023-02-02T05:45:54.048Z,101005.44
2023-02-02T05:48:22.405Z,101005.47
2023-02-02T05:51:00.042Z,101003.69
2023-02-02T05:53:29.679Z,101011.63
2023-02-02T05:55:59.589Z,101011.66
2023-02-02T05:58:28.392Z,101019.59
2023-02-02T06:00:56.898Z,101017.81
2023-02-02T06:03:27.336Z,101015.19
2023-02-02T06:05:55.654Z,101023.09
2023-02-02T06:08:23.825Z,101018.72
2023-02-02T06:10:51.756Z,101009.91
2023-02-02T06:13:21.216Z,101014.31
2023-02-02T06:15:49.216Z,101016.97
2023-02-02T06:18:19.665Z,101024.06
2023-02-02T06:20:50.208Z,101030.22
2023-02-02T06:23:18.272Z,101036.41
2023-02-02T06:25:46.094Z,101028.47
2023-02-02T06:28:16.549Z,101035.50
2023-02-02T06:30:46.033Z,101031.09
2023-02-02T06:33:14.372Z,101030.25
2023-02-02T06:35:42.320Z,101034.66
2023-02-02T06:38:12.646Z,101031.13
2023-02-02T06:40:40.528Z,101032.00
2023-02-02T06:43:09.107Z,101036.41
2023-02-02T06:45:40.159Z,101029.34
2023-02-02T06:48:14.522Z,101031.09
2023-02-02T06:50:42.586Z,101029.31
2023-02-02T06:53:10.854Z,101033.75
2023-02-02T06:55:41.678Z,101031.09
2023-02-02T06:58:10.148Z,101031.09
2023-02-02T07:00:40.262Z,101025.78
2023-02-02T07:03:08.687Z,101020.47
2023-02-02T07:05:43.145Z,101016.94
2023-02-02T07:08:11.230Z,101024.00
2023-02-02T07:11:12.800Z,101016.97
2023-02-02T07:13:30.567Z,101025.78
2023-02-02T07:15:58.604Z,101017.81
2023-02-02T07:18:27.171Z,101024.88
2023-02-02T07:20:59.120Z,101033.72
2023-02-02T07:23:27.705Z,101036.34
2023-02-02T07:26:03.089Z,101053.16
2023-02-02T07:28:31.366Z,101055.81
2023-02-02T07:31:00.144Z,101056.69
2023-02-02T07:33:28.288Z,101055.78
2023-02-02T07:35:57.616Z,101059.28
2023-02-02T07:38:25.561Z,101059.28
2023-02-02T07:40:53.707Z,101069.91
2023-02-02T07:43:21.623Z,101063.72
2023-02-02T07:45:49.785Z,101058.41
2023-02-02T07:48:18.159Z,101054.00
2023-02-02T07:50:46.490Z,101059.28
2023-02-02T07:53:15.739Z,101051.31
2023-02-02T07:55:43.934Z,101053.03
2023-02-02T07:58:11.821Z,101051.28
2023-02-02T08:00:40.067Z,101068.06
2023-02-02T08:03:12.169Z,101071.56
2023-02-02T08:05:40.828Z,101067.13
2023-02-02T08:08:15.033Z,101086.56
2023-02-02T08:10:49.010Z,101083.03
2023-02-02T08:13:16.934Z,101098.94
2023-02-02T08:15:45.007Z,101067.16
2023-02-02T08:18:15.928Z,101067.13
2023-02-02T08:20:44.142Z,101073.31
2023-02-02T08:23:15.743Z,101069.75
2023-02-02T08:25:49.700Z,101070.63
2023-02-02T08:28:18.259Z,101067.94
2023-02-02T08:30:47.207Z,101070.56
2023-02-02T08:33:15.451Z,101077.59
2023-02-02T08:35:44.054Z,101081.16
2023-02-02T08:38:14.406Z,101064.34
2023-02-02T08:40:42.593Z,101072.22
2023-02-02T08:43:11.855Z,101075.75
2023-02-02T08:46:01.459Z,101092.50
2023-02-02T08:49:29.422Z,101095.16
2023-02-02T08:51:57.485Z,101103.13
2023-02-02T08:54:25.540Z,101111.06
2023-02-02T08:56:53.601Z,101107.47
2023-02-02T08:59:21.720Z,101108.31
2023-02-02T09:01:50.002Z,101107.41
2023-02-02T09:04:18.086Z,101118.91
2023-02-02T09:06:47.811Z,101109.09
2023-02-02T09:09:18.507Z,101113.56
2023-02-02T09:11:49.495Z,101100.25
2023-02-02T09:14:17.426Z,101109.91
2023-02-02T09:16:45.870Z,101103.72
2023-02-02T09:19:13.908Z,101111.63
2023-02-02T09:21:42.185Z,101117.78
2023-02-02T09:24:13.898Z,101123.88
2023-02-02T09:26:43.584Z,101121.28
2023-02-02T09:29:14.603Z,101123.13
2023-02-02T09:31:43.522Z,101118.72
2023-02-02T09:34:13.068Z,101118.75
2023-02-02T09:36:45.195Z,101110.78
2023-02-02T09:39:16.578Z,101123.13
2023-02-02T09:42:22.154Z,101114.25
2023-02-02T09:44:59.646Z,101117.78
2023-02-02T09:47:52.356Z,101126.59
2023-02-02T09:50:32.082Z,101133.69
2023-02-02T09:53:07.937Z,101127.50
2023-02-02T09:55:42.377Z,101125.75
2023-02-02T09:58:17.774Z,101125.72
2023-02-02T10:00:54.193Z,101128.38
2023-02-02T10:03:33.050Z,101131.91
2023-02-02T10:06:13.564Z,101141.72
2023-02-02T10:08:45.570Z,101139.06
2023-02-02T10:11:30.811Z,101134.63
2023-02-02T10:14:07.312Z,101150.53
2023-02-02T10:16:38.950Z,101155.00
2023-02-02T10:19:12.019Z,101158.56
2023-02-02T10:21:50.167Z,101158.56
2023-02-02T10:24:20.957Z,101164.66
2023-02-02T10:26:53.955Z,101151.41
2023-02-02T10:29:48.038Z,101163.78
2023-02-02T10:32:24.077Z,101168.16
2023-02-02T10:35:13.784Z,101168.13
2023-02-02T10:37:50.369Z,101172.53
2023-02-02T10:40:36.746Z,101161.00
2023-02-02T10:43:39.518Z,101170.66
2023-02-02T10:46:14.280Z,101155.63
2023-02-02T10:48:46.552Z,101152.06
2023-02-02T10:51:21.094Z,101154.72
2023-02-02T10:53:53.794Z,101144.97
2023-02-02T10:56:26.402Z,101148.44
2023-02-02T10:59:02.723Z,101146.53
2023-02-02T11:01:30.817Z,101152.50
2023-02-02T11:04:16.756Z,101147.03
2023-02-02T11:06:50.562Z,101152.03
2023-02-02T11:09:22.254Z,101143.00
2023-02-02T11:11:55.679Z,101134.03
2023-02-02T11:14:41.829Z,101126.81
2023-02-02T11:17:21.337Z,101127.44
2023-02-02T11:19:50.911Z,101139.44
2023-02-02T11:22:29.505Z,101121.97
2023-02-02T11:24:59.406Z,101131.19
2023-02-02T11:27:29.383Z,101119.72
2023-02-02T11:30:11.157Z,101145.25
2023-02-02T11:32:39.262Z,101140.06
2023-02-02T11:35:20.977Z,101148.06
2023-02-02T11:37:58.431Z,101143.50
2023-02-02T11:40:33.210Z,101138.03
2023-02-02T11:43:04.806Z,101137.25
2023-02-02T11:45:39.445Z,101133.09
2023-02-02T11:48:16.809Z,101138.03
2023-02-02T11:50:48.934Z,101131.78
2023-02-02T11:53:25.647Z,101127.00
2023-02-02T11:55:54.789Z,101126.06
2023-02-02T11:58:27.598Z,101133.69
2023-02-02T12:01:00.622Z,101119.31
2023-02-02T12:03:35.406Z,101132.66
2023-02-02T12:06:19.996Z,101128.38
2023-02-02T12:08:48.599Z,101128.34
2023-02-02T12:11:35.525Z,101139.41
2023-02-02T12:14:29.061Z,101130.94
2023-02-02T12:17:11.779Z,101136.38
2023-02-02T12:19:57.084Z,101134.22
2023-02-02T12:22:42.852Z,101135.34
2023-02-02T12:25:32.472Z,101125.78
2023-02-02T12:28:06.197Z,101124.47
2023-02-02T12:30:43.849Z,101126.47
2023-02-02T12:33:35.579Z,101113.63
2023-02-02T12:36:23.085Z,101146.19
2023-02-02T12:39:18.935Z,101121.41
2023-02-02T12:42:18.059Z,101130.03
2023-02-02T12:44:58.149Z,101117.53
2023-02-02T12:47:31.544Z,101121.28
2023-02-02T12:50:18.514Z,101108.88
2023-02-02T12:53:02.889Z,101128.22
2023-02-02T12:55:38.739Z,101108.53
2023-02-02T12:58:20.469Z,101095.03
2023-02-02T13:01:13.392Z,101118.22
2023-02-02T13:03:55.542Z,101118.44
2023-02-02T13:06:56.372Z,101127.22
2023-02-02T13:09:31.307Z,101129.16
2023-02-02T13:12:07.797Z,101128.53
2023-02-02T13:14:39.323Z,101130.50
2023-02-02T13:17:12.961Z,101118.22
2023-02-02T13:19:44.355Z,101131.94
2023-02-02T13:22:20.283Z,101110.09
2023-02-02T13:24:54.879Z,101140.94
2023-02-02T13:27:24.947Z,101136.63
2023-02-02T13:29:55.415Z,101136.78
2023-02-02T13:32:28.203Z,101135.06
2023-02-02T13:35:04.494Z,101136.72
2023-02-02T13:37:41.168Z,101139.97
2023-02-02T13:40:26.586Z,101120.31
2023-02-02T13:42:58.888Z,101138.09
2023-02-02T13:45:42.997Z,101125.34
2023-02-02T13:50:46.682Z,101137.69
2023-02-02T13:53:46.256Z,101138.78
2023-02-02T13:56:36.037Z,101141.44
2023-02-02T13:59:48.972Z,101137.28
2023-02-02T14:02:26.810Z,101146.59
2023-02-02T14:04:57.507Z,101143.31
2023-02-02T14:07:40.774Z,101130.44
2023-02-02T14:10:25.457Z,101136.84
2023-02-02T14:12:54.996Z,101142.31
2023-02-02T14:15:39.259Z,101149.34
2023-02-02T14:18:08.111Z,101154.63
2023-02-02T14:20:47.806Z,101155.66
2023-02-02T14:23:55.520Z,101166.56
2023-02-02T14:26:44.436Z,101160.47
2023-02-02T14:29:39.514Z,101158.63
2023-02-02T14:32:42.587Z,101156.94
2023-02-02T14:35:44.189Z,101154.47
2023-02-02T14:38:19.809Z,101156.13
2023-02-02T14:41:00.330Z,101165.91
2023-02-02T14:43:46.479Z,101160.41
2023-02-02T14:46:25.127Z,101156.94
2023-02-02T14:49:17.808Z,101164.19
2023-02-02T14:51:55.379Z,101175.78
2023-02-02T14:54:28.078Z,101172.44
2023-02-02T14:57:01.710Z,101176.13
2023-02-02T14:59:34.691Z,101189.44
2023-02-02T15:02:11.529Z,101194.00
2023-02-02T15:04:42.480Z,101190.56
2023-02-02T15:07:51.413Z,101196.91
2023-02-02T15:10:54.065Z,101213.91
2023-02-02T15:13:26.711Z,101215.75
2023-02-02T15:16:07.639Z,101228.22
2023-02-02T15:18:44.327Z,101233.66
2023-02-02T15:21:17.663Z,101238.19
2023-02-02T15:23:47.717Z,101247.13
2023-02-02T15:26:21.630Z,101247.97
2023-02-02T15:28:57.189Z,101254.25
2023-02-02T15:31:30.825Z,101246.31
2023-02-02T15:34:02.047Z,101261.34
2023-02-02T15:36:34.141Z,101266.72
2023-02-02T15:39:11.999Z,101272.03
2023-02-02T15:41:44.826Z,101276.50
2023-02-02T15:44:29.968Z,101276.47
2023-02-02T15:46:59.409Z,101291.59
2023-02-02T15:49:34.640Z,101299.59
2023-02-02T15:52:14.653Z,101291.69
2023-02-02T15:54:52.885Z,101298.84
2023-02-02T15:57:28.593Z,101300.66
2023-02-02T15:59:57.944Z,101309.50
2023-02-02T16:02:38.132Z,101316.63
2023-02-02T16:05:25.205Z,101321.03
2023-02-02T16:08:05.692Z,101337.91
2023-02-02T16:10:35.102Z,101334.38
2023-02-02T16:13:04.801Z,101337.97
2023-02-02T16:15:34.570Z,101343.31
2023-02-02T16:18:04.830Z,101344.22
2023-02-02T16:20:35.840Z,101352.19
2023-02-02T16:23:07.064Z,101361.06
2023-02-02T16:25:42.944Z,101367.28
2023-02-02T16:28:15.238Z,101364.66
2023-02-02T16:30:45.979Z,101370.88
2023-02-02T16:33:30.567Z,101370.88
2023-02-02T16:35:58.678Z,101373.56
2023-02-02T16:38:34.068Z,101372.72
2023-02-02T16:41:07.536Z,101367.44
2023-02-02T16:43:36.738Z,101386.88
2023-02-02T16:46:09.896Z,101388.66
2023-02-02T16:48:40.573Z,101389.53
2023-02-02T16:51:22.934Z,101384.22
2023-02-02T16:53:59.992Z,101378.94
2023-02-02T16:56:34.136Z,101382.50
2023-02-02T16:59:06.596Z,101385.19
2023-02-02T17:01:40.375Z,101386.06
2023-02-02T17:04:19.154Z,101388.72
2023-02-02T17:06:52.735Z,101388.72
2023-02-02T17:09:35.797Z,101394.03
2023-02-02T17:12:14.322Z,101388.72
2023-02-02T17:14:53.778Z,101398.47
2023-02-02T17:17:26.110Z,101396.72
2023-02-02T17:19:55.159Z,101412.69
2023-02-02T17:22:24.947Z,101402.94
2023-02-02T17:24:54.169Z,101413.56
2023-02-02T17:27:27.971Z,101423.31
2023-02-02T17:29:57.924Z,101422.44
2023-02-02T17:32:29.689Z,101431.28
2023-02-02T17:34:58.533Z,101437.47
2023-02-02T17:37:29.071Z,101444.56
2023-02-02T17:39:57.336Z,101437.50
2023-02-02T17:42:27.518Z,101436.59
2023-02-02T17:45:01.602Z,101424.25
2023-02-02T17:47:31.444Z,101432.22
2023-02-02T17:50:00.597Z,101426.03
2023-02-02T17:52:28.764Z,101441.06
2023-02-02T17:54:57.141Z,101436.66
2023-02-02T17:57:25.476Z,101432.22
2023-02-02T17:59:54.566Z,101444.59
2023-02-02T18:02:23.596Z,101444.59
2023-02-02T18:04:53.540Z,101430.44
2023-02-02T18:07:24.318Z,101430.47
2023-02-02T18:09:55.967Z,101434.88
2023-02-02T18:12:24.784Z,101431.34
2023-02-02T18:14:52.983Z,101433.13
2023-02-02T18:17:21.529Z,101448.16
2023-02-02T18:19:51.243Z,101448.13
2023-02-02T18:22:20.948Z,101447.25
2023-02-02T18:24:49.512Z,101449.91
2023-02-02T18:27:20.518Z,101446.38
2023-02-02T18:29:53.218Z,101453.47
2023-02-02T18:32:24.647Z,101453.47
2023-02-02T18:34:55.814Z,101457.88
2023-02-02T18:37:27.951Z,101453.47
2023-02-02T18:39:56.097Z,101463.16
2023-02-02T18:42:26.256Z,101458.75
2023-02-02T18:44:54.539Z,101443.66
2023-02-02T18:47:22.826Z,101456.06
2023-02-02T18:51:34.248Z,101460.50
2023-02-02T18:54:02.558Z,101469.31
2023-02-02T18:56:31.543Z,101470.19
2023-02-02T18:59:00.072Z,101469.31
2023-02-02T19:01:32.086Z,101468.44
2023-02-02T19:04:01.467Z,101470.22
2023-02-02T19:06:47.408Z,101474.63
2023-02-02T19:09:17.472Z,101470.19
2023-02-02T19:11:47.935Z,101458.72
2023-02-02T19:14:18.372Z,101460.47
2023-02-02T19:16:49.314Z,101469.31
2023-02-02T19:19:25.605Z,101464.91
2023-02-02T19:21:58.620Z,101472.84
2023-02-02T19:24:29.830Z,101467.53
2023-02-02T19:26:58.102Z,101479.91
2023-02-02T19:29:30.328Z,101479.03
2023-02-02T19:32:03.652Z,101456.91
2023-02-02T19:34:34.770Z,101481.69
2023-02-02T19:37:19.704Z,101474.63
2023-02-02T19:39:50.194Z,101483.47
2023-02-02T19:42:18.526Z,101486.13
2023-02-02T19:44:48.791Z,101483.47
2023-02-02T19:47:25.729Z,101482.59
2023-02-02T19:49:53.856Z,101479.94
2023-02-02T19:52:25.605Z,101483.44
2023-02-02T19:54:55.371Z,101468.44
2023-02-02T19:57:36.290Z,101471.97
2023-02-02T20:00:19.538Z,101471.97
2023-02-02T20:02:58.521Z,101473.75
2023-02-02T20:05:30.243Z,101468.44
2023-02-02T20:08:01.706Z,101484.34
2023-02-02T20:10:39.486Z,101481.69
2023-02-02T20:13:17.559Z,101486.13
2023-02-02T20:15:51.269Z,101483.47
2023-02-02T20:18:22.448Z,101483.47
2023-02-02T20:20:53.735Z,101479.94
2023-02-02T20:23:37.143Z,101490.53
2023-02-02T20:26:18.025Z,101478.19
2023-02-02T20:28:47.127Z,101485.25
2023-02-02T20:31:17.905Z,101494.09
2023-02-02T20:33:49.006Z,101494.09
2023-02-02T20:36:35.638Z,101498.50
2023-02-02T20:39:24.929Z,101505.56
2023-02-02T20:41:57.183Z,101513.53
2023-02-02T20:44:29.339Z,101510.88
2023-02-02T20:47:00.871Z,101514.44
2023-02-02T20:49:31.794Z,101505.59
2023-02-02T20:52:04.207Z,101515.38
2023-02-02T20:54:33.347Z,101518.03
2023-02-02T20:57:03.107Z,101520.66
2023-02-02T20:59:31.142Z,101510.91
2023-02-02T21:02:02.700Z,101513.56
2023-02-02T21:04:33.663Z,101515.38
2023-02-02T21:07:02.073Z,101516.22
2023-02-02T21:09:30.140Z,101510.91
2023-02-02T21:11:58.402Z,101517.13
2023-02-02T21:14:33.332Z,101518.91
2023-02-02T21:17:13.973Z,101516.25
2023-02-02T21:19:50.864Z,101521.53
2023-02-02T21:22:21.154Z,101526.84
2023-02-02T21:24:49.217Z,101520.66
2023-02-02T21:27:19.913Z,101518.91
2023-02-02T21:29:49.904Z,101522.44
2023-02-02T21:32:17.973Z,101519.78
2023-02-02T21:34:46.101Z,101518.00
2023-02-02T21:37:18.926Z,101520.66
2023-02-02T21:39:50.889Z,101518.00
2023-02-02T21:42:21.037Z,101528.63
2023-02-02T21:44:56.371Z,101531.28
2023-02-02T21:47:30.009Z,101524.16
2023-02-02T21:50:00.173Z,101518.03
2023-02-02T21:52:34.171Z,101516.22
2023-02-02T21:55:23.586Z,101513.59
2023-02-02T21:57:51.915Z,101523.31
2023-02-02T22:00:26.323Z,101513.53
2023-02-02T22:02:58.941Z,101515.31
2023-02-02T22:05:35.392Z,101513.59
2023-02-02T22:08:18.767Z,101505.56
2023-02-02T22:10:48.617Z,101500.28
2023-02-02T22:13:18.794Z,101501.16
2023-02-02T22:15:52.004Z,101492.28
2023-02-02T22:18:21.744Z,101488.75
2023-02-02T22:20:50.904Z,101477.28
2023-02-02T22:23:21.132Z,101474.63
2023-02-02T22:25:54.542Z,101477.28
2023-02-02T22:28:25.992Z,101469.28
2023-02-02T22:30:57.228Z,101463.97
2023-02-02T22:33:26.784Z,101471.97
2023-02-02T22:35:55.300Z,101470.19
2023-02-02T22:38:25.547Z,101465.75
2023-02-02T22:40:54.334Z,101474.63
2023-02-02T22:43:22.778Z,101479.91
2023-02-02T22:45:50.795Z,101487.91
2023-02-02T22:48:22.276Z,101483.47
2023-02-02T22:50:50.200Z,101481.69
2023-02-02T22:53:18.170Z,101484.34
2023-02-02T22:55:46.090Z,101481.69
2023-02-02T22:58:14.323Z,101495.78
2023-02-02T23:00:42.279Z,101494.94
2023-02-02T23:03:10.496Z,101487.84
2023-02-02T23:05:40.300Z,101492.25
2023-02-02T23:08:08.324Z,101506.44
2023-02-02T23:10:38.900Z,101504.63
2023-02-02T23:13:10.160Z,101511.75
2023-02-02T23:15:38.172Z,101511.75
2023-02-02T23:18:08.546Z,101514.38
2023-02-02T23:20:36.567Z,101523.19
2023-02-02T23:23:08.840Z,101519.66
2023-02-02T23:25:39.228Z,101520.53
2023-02-02T23:28:09.585Z,101514.34
2023-02-02T23:30:40.241Z,101519.63
2023-02-02T23:33:08.272Z,101533.75
2023-02-02T23:35:36.554Z,101527.56
2023-02-02T23:38:04.561Z,101525.78
2023-02-02T23:40:33.962Z,101524.03
2023-02-02T23:43:02.023Z,101516.97
2023-02-02T23:45:30.038Z,101509.91
2023-02-02T23:48:00.256Z,101499.28
2023-02-02T23:52:34.107Z,101508.13
2023-02-02T23:55:03.834Z,101509.00
2023-02-02T23:57:33.715Z,101501.91
